sensor_id;sensor_type;location;lat;lon;timestamp;P1;durP1;ratioP1;P2;durP2;ratioP2
57899;SDS011;60605;53.716;19.940;2023-03-11T00:03:47;59.40;;;24.90;;
57899;SDS011;60605;53.716;19.940;2023-03-11T00:08:49;54.90;;;20.70;;
57899;SDS011;60605;53.716;19.940;2023-03-11T00:13:52;55.00;;;22.00;;
57899;SDS011;60605;53.716;19.940;2023-03-11T00:18:54;53.60;;;22.00;;
57899;SDS011;60605;53.716;19.940;2023-03-11T00:23:56;60.20;;;23.40;;
57899;SDS011;60605;53.716;19.940;2023-03-11T00:29:01;75.70;;;26.80;;
57899;SDS011;60605;53.716;19.940;2023-03-11T00:34:03;58.30;;;23.10;;
57899;SDS011;60605;53.716;19.940;2023-03-11T00:39:04;51.00;;;20.80;;
57899;SDS011;60605;53.716;19.940;2023-03-11T00:44:11;62.70;;;22.00;;
57899;SDS011;60605;53.716;19.940;2023-03-11T00:49:13;49.90;;;20.90;;
57899;SDS011;60605;53.716;19.940;2023-03-11T00:54:15;44.70;;;18.10;;
57899;SDS011;60605;53.716;19.940;2023-03-11T00:59:16;39.30;;;17.60;;
57899;SDS011;60605;53.716;19.940;2023-03-11T01:04:18;36.90;;;16.90;;
57899;SDS011;60605;53.716;19.940;2023-03-11T01:09:20;45.60;;;18.20;;
57899;SDS011;60605;53.716;19.940;2023-03-11T01:14:22;41.30;;;18.60;;
57899;SDS011;60605;53.716;19.940;2023-03-11T01:19:24;78.20;;;34.20;;
57899;SDS011;60605;53.716;19.940;2023-03-11T01:24:25;37.20;;;17.40;;
57899;SDS011;60605;53.716;19.940;2023-03-11T01:29:27;30.40;;;14.90;;
57899;SDS011;60605;53.716;19.940;2023-03-11T01:34:29;26.00;;;13.50;;
57899;SDS011;60605;53.716;19.940;2023-03-11T01:39:31;37.60;;;20.30;;
57899;SDS011;60605;53.716;19.940;2023-03-11T01:44:33;45.70;;;20.30;;
57899;SDS011;60605;53.716;19.940;2023-03-11T01:49:34;37.80;;;17.00;;
57899;SDS011;60605;53.716;19.940;2023-03-11T01:54:42;40.10;;;22.60;;
57899;SDS011;60605;53.716;19.940;2023-03-11T01:59:46;35.40;;;18.90;;
57899;SDS011;60605;53.716;19.940;2023-03-11T02:04:51;30.50;;;15.50;;
57899;SDS011;60605;53.716;19.940;2023-03-11T02:09:54;20.20;;;12.00;;
57899;SDS011;60605;53.716;19.940;2023-03-11T02:14:56;22.40;;;10.90;;
57899;SDS011;60605;53.716;19.940;2023-03-11T02:20:02;19.00;;;11.80;;
57899;SDS011;60605;53.716;19.940;2023-03-11T02:25:20;15.20;;;8.40;;
57899;SDS011;60605;53.716;19.940;2023-03-11T02:30:31;15.80;;;9.40;;
57899;SDS011;60605;53.716;19.940;2023-03-11T02:35:35;18.00;;;9.00;;
57899;SDS011;60605;53.716;19.940;2023-03-11T02:40:43;19.70;;;9.60;;
57899;SDS011;60605;53.716;19.940;2023-03-11T02:45:52;17.00;;;9.30;;
57899;SDS011;60605;53.716;19.940;2023-03-11T02:50:54;10.30;;;6.20;;
57899;SDS011;60605;53.716;19.940;2023-03-11T02:55:57;16.00;;;9.50;;
57899;SDS011;60605;53.716;19.940;2023-03-11T03:00:59;18.70;;;9.10;;
57899;SDS011;60605;53.716;19.940;2023-03-11T03:06:02;16.20;;;9.40;;
57899;SDS011;60605;53.716;19.940;2023-03-11T03:11:04;13.80;;;8.30;;
57899;SDS011;60605;53.716;19.940;2023-03-11T03:16:06;14.10;;;8.10;;
57899;SDS011;60605;53.716;19.940;2023-03-11T03:21:08;9.00;;;6.10;;
57899;SDS011;60605;53.716;19.940;2023-03-11T03:26:11;13.70;;;8.70;;
57899;SDS011;60605;53.716;19.940;2023-03-11T03:31:14;14.20;;;8.60;;
57899;SDS011;60605;53.716;19.940;2023-03-11T03:36:16;9.10;;;6.50;;
57899;SDS011;60605;53.716;19.940;2023-03-11T03:41:17;8.10;;;5.70;;
57899;SDS011;60605;53.716;19.940;2023-03-11T03:46:19;11.20;;;7.40;;
57899;SDS011;60605;53.716;19.940;2023-03-11T03:51:22;10.10;;;6.20;;
57899;SDS011;60605;53.716;19.940;2023-03-11T03:56:24;9.50;;;6.30;;
57899;SDS011;60605;53.716;19.940;2023-03-11T04:01:26;10.20;;;6.20;;
57899;SDS011;60605;53.716;19.940;2023-03-11T04:06:28;9.10;;;6.10;;
57899;SDS011;60605;53.716;19.940;2023-03-11T04:11:30;6.80;;;4.90;;
57899;SDS011;60605;53.716;19.940;2023-03-11T04:16:33;9.60;;;4.90;;
57899;SDS011;60605;53.716;19.940;2023-03-11T04:21:35;4.40;;;3.90;;
57899;SDS011;60605;53.716;19.940;2023-03-11T04:26:37;6.70;;;4.90;;
57899;SDS011;60605;53.716;19.940;2023-03-11T04:31:38;6.20;;;3.60;;
57899;SDS011;60605;53.716;19.940;2023-03-11T04:36:40;5.00;;;3.40;;
57899;SDS011;60605;53.716;19.940;2023-03-11T04:41:42;6.80;;;5.30;;
57899;SDS011;60605;53.716;19.940;2023-03-11T04:46:44;4.20;;;3.80;;
57899;SDS011;60605;53.716;19.940;2023-03-11T04:51:46;3.30;;;3.00;;
57899;SDS011;60605;53.716;19.940;2023-03-11T04:56:48;3.40;;;3.10;;
57899;SDS011;60605;53.716;19.940;2023-03-11T05:01:50;3.00;;;2.80;;
57899;SDS011;60605;53.716;19.940;2023-03-11T05:06:52;3.00;;;2.60;;
57899;SDS011;60605;53.716;19.940;2023-03-11T05:11:54;2.80;;;2.50;;
57899;SDS011;60605;53.716;19.940;2023-03-11T05:16:56;2.40;;;2.30;;
57899;SDS011;60605;53.716;19.940;2023-03-11T05:21:59;2.50;;;2.30;;
57899;SDS011;60605;53.716;19.940;2023-03-11T05:27:03;2.80;;;2.60;;
57899;SDS011;60605;53.716;19.940;2023-03-11T05:32:05;2.80;;;2.60;;
57899;SDS011;60605;53.716;19.940;2023-03-11T05:37:08;2.30;;;2.20;;
57899;SDS011;60605;53.716;19.940;2023-03-11T05:42:10;2.80;;;2.60;;
57899;SDS011;60605;53.716;19.940;2023-03-11T05:47:12;3.00;;;2.80;;
57899;SDS011;60605;53.716;19.940;2023-03-11T05:52:15;5.50;;;3.20;;
57899;SDS011;60605;53.716;19.940;2023-03-11T05:57:18;3.80;;;3.50;;
57899;SDS011;60605;53.716;19.940;2023-03-11T06:02:20;3.10;;;2.80;;
57899;SDS011;60605;53.716;19.940;2023-03-11T06:07:22;4.10;;;3.60;;
57899;SDS011;60605;53.716;19.940;2023-03-11T06:12:23;5.60;;;3.50;;
57899;SDS011;60605;53.716;19.940;2023-03-11T06:17:26;4.00;;;3.60;;
57899;SDS011;60605;53.716;19.940;2023-03-11T06:22:31;5.00;;;3.50;;
57899;SDS011;60605;53.716;19.940;2023-03-11T06:27:33;5.80;;;4.60;;
57899;SDS011;60605;53.716;19.940;2023-03-11T06:32:35;3.80;;;3.50;;
57899;SDS011;60605;53.716;19.940;2023-03-11T06:37:37;3.20;;;2.90;;
57899;SDS011;60605;53.716;19.940;2023-03-11T06:42:41;3.30;;;3.00;;
57899;SDS011;60605;53.716;19.940;2023-03-11T06:47:43;4.50;;;3.50;;
57899;SDS011;60605;53.716;19.940;2023-03-11T06:52:46;5.50;;;4.80;;
57899;SDS011;60605;53.716;19.940;2023-03-11T06:57:48;3.90;;;3.10;;
57899;SDS011;60605;53.716;19.940;2023-03-11T07:02:50;4.30;;;3.90;;
57899;SDS011;60605;53.716;19.940;2023-03-11T07:07:53;3.60;;;3.30;;
57899;SDS011;60605;53.716;19.940;2023-03-11T07:12:56;34.00;;;16.00;;
57899;SDS011;60605;53.716;19.940;2023-03-11T07:17:57;64.00;;;24.80;;
57899;SDS011;60605;53.716;19.940;2023-03-11T07:22:59;41.10;;;16.80;;
57899;SDS011;60605;53.716;19.940;2023-03-11T07:28:01;12.10;;;8.80;;
57899;SDS011;60605;53.716;19.940;2023-03-11T07:33:04;6.50;;;5.30;;
57899;SDS011;60605;53.716;19.940;2023-03-11T07:38:06;19.80;;;11.20;;
57899;SDS011;60605;53.716;19.940;2023-03-11T07:43:11;9.90;;;6.70;;
57899;SDS011;60605;53.716;19.940;2023-03-11T07:48:13;6.30;;;4.50;;
57899;SDS011;60605;53.716;19.940;2023-03-11T07:53:16;6.00;;;4.00;;
57899;SDS011;60605;53.716;19.940;2023-03-11T07:58:19;4.30;;;3.90;;
57899;SDS011;60605;53.716;19.940;2023-03-11T08:03:21;3.80;;;3.50;;
57899;SDS011;60605;53.716;19.940;2023-03-11T08:08:25;4.50;;;3.90;;
57899;SDS011;60605;53.716;19.940;2023-03-11T08:13:27;6.60;;;4.60;;
57899;SDS011;60605;53.716;19.940;2023-03-11T08:18:29;20.80;;;10.30;;
57899;SDS011;60605;53.716;19.940;2023-03-11T08:23:31;30.20;;;20.60;;
57899;SDS011;60605;53.716;19.940;2023-03-11T08:28:34;14.20;;;10.60;;
57899;SDS011;60605;53.716;19.940;2023-03-11T08:38:39;5.80;;;4.40;;
57899;SDS011;60605;53.716;19.940;2023-03-11T08:43:42;18.30;;;7.70;;
57899;SDS011;60605;53.716;19.940;2023-03-11T08:48:45;6.40;;;4.40;;
57899;SDS011;60605;53.716;19.940;2023-03-11T08:53:47;6.70;;;4.90;;
57899;SDS011;60605;53.716;19.940;2023-03-11T08:58:51;5.80;;;4.00;;
57899;SDS011;60605;53.716;19.940;2023-03-11T09:03:53;14.10;;;6.10;;
57899;SDS011;60605;53.716;19.940;2023-03-11T09:08:55;15.80;;;9.70;;
57899;SDS011;60605;53.716;19.940;2023-03-11T09:13:57;14.50;;;7.50;;
57899;SDS011;60605;53.716;19.940;2023-03-11T09:18:59;7.10;;;3.60;;
57899;SDS011;60605;53.716;19.940;2023-03-11T09:24:04;14.90;;;8.50;;
57899;SDS011;60605;53.716;19.940;2023-03-11T09:29:07;10.90;;;7.00;;
57899;SDS011;60605;53.716;19.940;2023-03-11T09:34:10;4.70;;;4.00;;
57899;SDS011;60605;53.716;19.940;2023-03-11T09:39:16;6.30;;;4.20;;
57899;SDS011;60605;53.716;19.940;2023-03-11T09:55:29;11.40;;;6.70;;
57899;SDS011;60605;53.716;19.940;2023-03-11T10:00:35;10.50;;;5.90;;
57899;SDS011;60605;53.716;19.940;2023-03-11T10:05:38;11.60;;;6.60;;
57899;SDS011;60605;53.716;19.940;2023-03-11T10:10:45;8.60;;;5.20;;
57899;SDS011;60605;53.716;19.940;2023-03-11T10:21:07;8.80;;;5.70;;
57899;SDS011;60605;53.716;19.940;2023-03-11T10:26:24;5.60;;;4.50;;
57899;SDS011;60605;53.716;19.940;2023-03-11T10:31:35;6.60;;;4.90;;
57899;SDS011;60605;53.716;19.940;2023-03-11T10:36:45;6.70;;;4.70;;
57899;SDS011;60605;53.716;19.940;2023-03-11T10:42:12;9.30;;;4.60;;
57899;SDS011;60605;53.716;19.940;2023-03-11T10:47:18;7.60;;;5.60;;
57899;SDS011;60605;53.716;19.940;2023-03-11T10:52:23;6.00;;;5.10;;
57899;SDS011;60605;53.716;19.940;2023-03-11T11:02:54;20.10;;;11.90;;
57899;SDS011;60605;53.716;19.940;2023-03-11T11:08:11;7.30;;;5.00;;
57899;SDS011;60605;53.716;19.940;2023-03-11T11:13:17;6.30;;;4.50;;
57899;SDS011;60605;53.716;19.940;2023-03-11T11:28:44;4.50;;;3.80;;
57899;SDS011;60605;53.716;19.940;2023-03-11T11:33:51;15.50;;;8.40;;
57899;SDS011;60605;53.716;19.940;2023-03-11T11:38:54;12.90;;;7.50;;
57899;SDS011;60605;53.716;19.940;2023-03-11T11:44:02;12.20;;;7.80;;
57899;SDS011;60605;53.716;19.940;2023-03-11T11:59:36;87.70;;;34.10;;
57899;SDS011;60605;53.716;19.940;2023-03-11T12:10:27;11.30;;;8.30;;
57899;SDS011;60605;53.716;19.940;2023-03-11T12:26:43;7.00;;;5.00;;
57899;SDS011;60605;53.716;19.940;2023-03-11T12:31:49;5.90;;;4.30;;
57899;SDS011;60605;53.716;19.940;2023-03-11T12:47:24;7.80;;;7.00;;
57899;SDS011;60605;53.716;19.940;2023-03-11T12:52:29;5.40;;;4.40;;
57899;SDS011;60605;53.716;19.940;2023-03-11T13:03:33;9.20;;;7.50;;
57899;SDS011;60605;53.716;19.940;2023-03-11T13:08:48;11.40;;;7.80;;
57899;SDS011;60605;53.716;19.940;2023-03-11T13:13:51;8.10;;;5.60;;
57899;SDS011;60605;53.716;19.940;2023-03-11T13:18:53;6.60;;;4.40;;
57899;SDS011;60605;53.716;19.940;2023-03-11T13:45:19;28.10;;;12.90;;
57899;SDS011;60605;53.716;19.940;2023-03-11T13:50:46;8.00;;;4.40;;
57899;SDS011;60605;53.716;19.940;2023-03-11T13:55:51;13.50;;;7.80;;
57899;SDS011;60605;53.716;19.940;2023-03-11T14:00:54;13.00;;;8.20;;
57899;SDS011;60605;53.716;19.940;2023-03-11T14:06:00;13.20;;;10.70;;
57899;SDS011;60605;53.716;19.940;2023-03-11T14:21:47;15.50;;;7.50;;
57899;SDS011;60605;53.716;19.940;2023-03-11T14:26:52;12.70;;;8.50;;
57899;SDS011;60605;53.716;19.940;2023-03-11T14:31:56;16.70;;;10.80;;
57899;SDS011;60605;53.716;19.940;2023-03-11T14:36:59;21.70;;;12.80;;
57899;SDS011;60605;53.716;19.940;2023-03-11T14:52:53;17.00;;;8.30;;
57899;SDS011;60605;53.716;19.940;2023-03-11T14:58:03;132.00;;;70.70;;
57899;SDS011;60605;53.716;19.940;2023-03-11T15:08:30;25.30;;;12.90;;
57899;SDS011;60605;53.716;19.940;2023-03-11T15:14:18;22.50;;;13.30;;
57899;SDS011;60605;53.716;19.940;2023-03-11T15:24:32;23.20;;;11.90;;
57899;SDS011;60605;53.716;19.940;2023-03-11T15:29:35;12.70;;;9.00;;
57899;SDS011;60605;53.716;19.940;2023-03-11T15:34:37;9.30;;;6.20;;
57899;SDS011;60605;53.716;19.940;2023-03-11T15:39:41;12.60;;;9.20;;
57899;SDS011;60605;53.716;19.940;2023-03-11T15:44:49;35.20;;;17.10;;
57899;SDS011;60605;53.716;19.940;2023-03-11T15:50:15;53.00;;;27.90;;
57899;SDS011;60605;53.716;19.940;2023-03-11T15:55:28;12.20;;;8.20;;
57899;SDS011;60605;53.716;19.940;2023-03-11T16:00:30;10.90;;;6.40;;
57899;SDS011;60605;53.716;19.940;2023-03-11T16:05:33;11.70;;;7.30;;
57899;SDS011;60605;53.716;19.940;2023-03-11T16:10:37;28.90;;;20.00;;
57899;SDS011;60605;53.716;19.940;2023-03-11T16:15:40;14.90;;;12.40;;
57899;SDS011;60605;53.716;19.940;2023-03-11T16:20:45;19.10;;;10.60;;
57899;SDS011;60605;53.716;19.940;2023-03-11T16:25:52;27.80;;;13.80;;
57899;SDS011;60605;53.716;19.940;2023-03-11T16:30:57;26.70;;;14.50;;
57899;SDS011;60605;53.716;19.940;2023-03-11T16:35:59;13.70;;;8.30;;
57899;SDS011;60605;53.716;19.940;2023-03-11T16:46:04;27.90;;;12.60;;
57899;SDS011;60605;53.716;19.940;2023-03-11T16:51:07;26.10;;;11.30;;
57899;SDS011;60605;53.716;19.940;2023-03-11T16:56:09;26.10;;;13.00;;
57899;SDS011;60605;53.716;19.940;2023-03-11T17:01:11;33.40;;;16.80;;
57899;SDS011;60605;53.716;19.940;2023-03-11T17:06:13;20.10;;;9.00;;
57899;SDS011;60605;53.716;19.940;2023-03-11T17:11:17;27.40;;;12.50;;
57899;SDS011;60605;53.716;19.940;2023-03-11T17:16:21;379.40;;;93.60;;
57899;SDS011;60605;53.716;19.940;2023-03-11T17:21:24;235.80;;;61.40;;
57899;SDS011;60605;53.716;19.940;2023-03-11T17:26:27;151.40;;;42.10;;
57899;SDS011;60605;53.716;19.940;2023-03-11T17:31:31;561.00;;;128.90;;
57899;SDS011;60605;53.716;19.940;2023-03-11T17:36:33;826.50;;;268.90;;
57899;SDS011;60605;53.716;19.940;2023-03-11T17:41:36;52.90;;;20.90;;
57899;SDS011;60605;53.716;19.940;2023-03-11T17:46:39;59.20;;;19.00;;
57899;SDS011;60605;53.716;19.940;2023-03-11T17:51:41;271.20;;;73.00;;
57899;SDS011;60605;53.716;19.940;2023-03-11T17:56:44;28.60;;;12.40;;
57899;SDS011;60605;53.716;19.940;2023-03-11T18:01:47;59.10;;;24.50;;
57899;SDS011;60605;53.716;19.940;2023-03-11T18:06:49;113.50;;;42.30;;
57899;SDS011;60605;53.716;19.940;2023-03-11T18:11:54;61.00;;;19.70;;
57899;SDS011;60605;53.716;19.940;2023-03-11T18:16:57;57.30;;;17.50;;
57899;SDS011;60605;53.716;19.940;2023-03-11T18:21:59;43.60;;;17.20;;
57899;SDS011;60605;53.716;19.940;2023-03-11T18:27:01;34.40;;;12.00;;
57899;SDS011;60605;53.716;19.940;2023-03-11T18:32:04;120.70;;;42.40;;
57899;SDS011;60605;53.716;19.940;2023-03-11T18:37:06;139.90;;;34.30;;
57899;SDS011;60605;53.716;19.940;2023-03-11T18:42:09;142.00;;;39.00;;
57899;SDS011;60605;53.716;19.940;2023-03-11T18:47:10;39.20;;;12.20;;
57899;SDS011;60605;53.716;19.940;2023-03-11T18:52:13;161.00;;;37.80;;
57899;SDS011;60605;53.716;19.940;2023-03-11T18:57:15;53.40;;;15.30;;
57899;SDS011;60605;53.716;19.940;2023-03-11T19:02:17;403.30;;;73.10;;
57899;SDS011;60605;53.716;19.940;2023-03-11T19:07:19;247.20;;;84.30;;
57899;SDS011;60605;53.716;19.940;2023-03-11T19:12:23;327.80;;;48.40;;
57899;SDS011;60605;53.716;19.940;2023-03-11T19:17:29;342.40;;;84.50;;
57899;SDS011;60605;53.716;19.940;2023-03-11T19:22:34;137.30;;;35.40;;
57899;SDS011;60605;53.716;19.940;2023-03-11T19:27:37;299.80;;;77.50;;
57899;SDS011;60605;53.716;19.940;2023-03-11T19:37:43;239.90;;;48.80;;
57899;SDS011;60605;53.716;19.940;2023-03-11T19:42:45;125.60;;;44.80;;
57899;SDS011;60605;53.716;19.940;2023-03-11T19:47:48;205.10;;;37.60;;
57899;SDS011;60605;53.716;19.940;2023-03-11T19:52:52;164.80;;;62.00;;
57899;SDS011;60605;53.716;19.940;2023-03-11T19:57:54;165.90;;;35.60;;
57899;SDS011;60605;53.716;19.940;2023-03-11T20:02:56;199.10;;;46.30;;
57899;SDS011;60605;53.716;19.940;2023-03-11T20:07:59;89.50;;;26.50;;
57899;SDS011;60605;53.716;19.940;2023-03-11T20:13:02;93.40;;;22.80;;
57899;SDS011;60605;53.716;19.940;2023-03-11T20:18:06;65.80;;;32.40;;
57899;SDS011;60605;53.716;19.940;2023-03-11T20:23:08;40.70;;;14.60;;
57899;SDS011;60605;53.716;19.940;2023-03-11T20:28:11;129.50;;;33.60;;
57899;SDS011;60605;53.716;19.940;2023-03-11T20:33:13;59.10;;;16.00;;
57899;SDS011;60605;53.716;19.940;2023-03-11T20:38:15;126.10;;;32.10;;
57899;SDS011;60605;53.716;19.940;2023-03-11T20:43:18;36.00;;;13.30;;
57899;SDS011;60605;53.716;19.940;2023-03-11T20:48:20;77.90;;;21.10;;
57899;SDS011;60605;53.716;19.940;2023-03-11T20:53:22;26.80;;;10.30;;
57899;SDS011;60605;53.716;19.940;2023-03-11T20:58:24;52.00;;;14.40;;
57899;SDS011;60605;53.716;19.940;2023-03-11T21:03:26;21.60;;;10.00;;
57899;SDS011;60605;53.716;19.940;2023-03-11T21:08:28;43.80;;;12.60;;
57899;SDS011;60605;53.716;19.940;2023-03-11T21:13:30;15.40;;;8.40;;
57899;SDS011;60605;53.716;19.940;2023-03-11T21:18:36;17.60;;;7.60;;
57899;SDS011;60605;53.716;19.940;2023-03-11T21:23:39;38.60;;;17.30;;
57899;SDS011;60605;53.716;19.940;2023-03-11T21:28:42;14.40;;;7.30;;
57899;SDS011;60605;53.716;19.940;2023-03-11T21:33:47;31.60;;;13.30;;
57899;SDS011;60605;53.716;19.940;2023-03-11T21:38:52;19.60;;;8.50;;
57899;SDS011;60605;53.716;19.940;2023-03-11T21:43:55;30.50;;;12.60;;
57899;SDS011;60605;53.716;19.940;2023-03-11T21:48:58;16.30;;;9.20;;
57899;SDS011;60605;53.716;19.940;2023-03-11T21:59:04;12.80;;;6.90;;
57899;SDS011;60605;53.716;19.940;2023-03-11T22:04:07;18.10;;;8.70;;
57899;SDS011;60605;53.716;19.940;2023-03-11T22:09:10;22.40;;;9.30;;
57899;SDS011;60605;53.716;19.940;2023-03-11T22:14:12;14.60;;;7.00;;
57899;SDS011;60605;53.716;19.940;2023-03-11T22:19:15;17.30;;;7.50;;
57899;SDS011;60605;53.716;19.940;2023-03-11T22:24:18;14.30;;;6.70;;
57899;SDS011;60605;53.716;19.940;2023-03-11T22:29:19;11.40;;;5.20;;
57899;SDS011;60605;53.716;19.940;2023-03-11T22:34:21;14.80;;;8.20;;
57899;SDS011;60605;53.716;19.940;2023-03-11T22:39:23;10.20;;;6.10;;
57899;SDS011;60605;53.716;19.940;2023-03-11T22:44:25;9.00;;;5.50;;
57899;SDS011;60605;53.716;19.940;2023-03-11T22:49:27;9.00;;;5.30;;
57899;SDS011;60605;53.716;19.940;2023-03-11T22:54:29;13.00;;;6.50;;
57899;SDS011;60605;53.716;19.940;2023-03-11T22:59:31;10.40;;;6.30;;
57899;SDS011;60605;53.716;19.940;2023-03-11T23:04:33;9.70;;;5.60;;
57899;SDS011;60605;53.716;19.940;2023-03-11T23:09:34;9.70;;;6.90;;
57899;SDS011;60605;53.716;19.940;2023-03-11T23:14:36;12.80;;;6.00;;
57899;SDS011;60605;53.716;19.940;2023-03-11T23:19:46;13.00;;;6.30;;
57899;SDS011;60605;53.716;19.940;2023-03-11T23:24:48;14.20;;;7.40;;
57899;SDS011;60605;53.716;19.940;2023-03-11T23:29:50;10.90;;;7.60;;
57899;SDS011;60605;53.716;19.940;2023-03-11T23:34:52;12.30;;;6.90;;
57899;SDS011;60605;53.716;19.940;2023-03-11T23:39:55;10.30;;;6.20;;
57899;SDS011;60605;53.716;19.940;2023-03-11T23:44:57;13.00;;;7.10;;
57899;SDS011;60605;53.716;19.940;2023-03-11T23:49:59;11.20;;;6.40;;
57899;SDS011;60605;53.716;19.940;2023-03-11T23:55:01;11.10;;;6.60;;
